sensor_id;sensor_type;location;lat;lon;timestamp;temperature;humidity
11387;DHT22;5748;53.102;8.456;2023-08-12T00:04:41;25.10;53.20
11387;DHT22;5748;53.102;8.456;2023-08-12T00:07:08;25.00;53.30
11387;DHT22;5748;53.102;8.456;2023-08-12T00:09:35;25.10;53.70
11387;DHT22;5748;53.102;8.456;2023-08-12T00:12:03;25.00;53.50
11387;DHT22;5748;53.102;8.456;2023-08-12T00:14:30;25.00;53.90
11387;DHT22;5748;53.102;8.456;2023-08-12T00:16:57;24.80;53.70
11387;DHT22;5748;53.102;8.456;2023-08-12T00:21:52;24.90;53.90
11387;DHT22;5748;53.102;8.456;2023-08-12T00:24:19;24.90;54.60
11387;DHT22;5748;53.102;8.456;2023-08-12T00:26:46;25.00;54.10
11387;DHT22;5748;53.102;8.456;2023-08-12T00:29:13;25.00;54.20
11387;DHT22;5748;53.102;8.456;2023-08-12T00:31:40;25.00;54.30
11387;DHT22;5748;53.102;8.456;2023-08-12T00:34:07;25.10;54.40
11387;DHT22;5748;53.102;8.456;2023-08-12T00:39:02;25.00;54.20
11387;DHT22;5748;53.102;8.456;2023-08-12T00:41:30;25.00;54.70
11387;DHT22;5748;53.102;8.456;2023-08-12T00:43:57;24.90;54.60
11387;DHT22;5748;53.102;8.456;2023-08-12T00:46:24;25.10;54.80
11387;DHT22;5748;53.102;8.456;2023-08-12T00:48:51;25.00;54.80
11387;DHT22;5748;53.102;8.456;2023-08-12T00:51:18;25.00;54.90
11387;DHT22;5748;53.102;8.456;2023-08-12T00:53:47;24.90;54.90
11387;DHT22;5748;53.102;8.456;2023-08-12T00:56:14;25.10;55.30
11387;DHT22;5748;53.102;8.456;2023-08-12T00:58:43;24.90;54.90
11387;DHT22;5748;53.102;8.456;2023-08-12T01:01:11;24.90;55.10
11387;DHT22;5748;53.102;8.456;2023-08-12T01:03:38;24.80;55.20
11387;DHT22;5748;53.102;8.456;2023-08-12T01:06:07;24.80;55.40
11387;DHT22;5748;53.102;8.456;2023-08-12T01:08:35;24.70;55.10
11387;DHT22;5748;53.102;8.456;2023-08-12T01:11:24;24.70;55.00
11387;DHT22;5748;53.102;8.456;2023-08-12T01:13:58;24.60;54.80
11387;DHT22;5748;53.102;8.456;2023-08-12T01:16:30;24.60;55.00
11387;DHT22;5748;53.102;8.456;2023-08-12T01:19:02;24.60;55.90
11387;DHT22;5748;53.102;8.456;2023-08-12T01:21:33;24.50;55.90
11387;DHT22;5748;53.102;8.456;2023-08-12T01:24:06;24.50;56.50
11387;DHT22;5748;53.102;8.456;2023-08-12T01:26:33;24.50;56.10
11387;DHT22;5748;53.102;8.456;2023-08-12T01:29:00;24.50;56.00
11387;DHT22;5748;53.102;8.456;2023-08-12T01:31:32;24.50;56.10
11387;DHT22;5748;53.102;8.456;2023-08-12T01:34:07;22.20;54.80
11387;DHT22;5748;53.102;8.456;2023-08-12T01:36:39;24.30;56.70
11387;DHT22;5748;53.102;8.456;2023-08-12T01:39:10;24.40;56.00
11387;DHT22;5748;53.102;8.456;2023-08-12T01:41:38;24.40;56.50
11387;DHT22;5748;53.102;8.456;2023-08-12T01:44:05;25.10;57.10
11387;DHT22;5748;53.102;8.456;2023-08-12T01:46:32;24.40;56.60
11387;DHT22;5748;53.102;8.456;2023-08-12T01:48:59;24.30;56.30
11387;DHT22;5748;53.102;8.456;2023-08-12T01:51:26;24.40;56.70
11387;DHT22;5748;53.102;8.456;2023-08-12T01:53:53;24.30;56.70
11387;DHT22;5748;53.102;8.456;2023-08-12T01:56:21;24.30;56.50
11387;DHT22;5748;53.102;8.456;2023-08-12T01:58:48;24.30;56.90
11387;DHT22;5748;53.102;8.456;2023-08-12T02:01:15;24.40;56.90
11387;DHT22;5748;53.102;8.456;2023-08-12T02:03:42;24.30;56.90
11387;DHT22;5748;53.102;8.456;2023-08-12T02:06:09;24.30;56.70
11387;DHT22;5748;53.102;8.456;2023-08-12T02:08:36;24.30;57.00
11387;DHT22;5748;53.102;8.456;2023-08-12T02:11:03;24.30;56.90
11387;DHT22;5748;53.102;8.456;2023-08-12T02:18:26;24.30;57.10
11387;DHT22;5748;53.102;8.456;2023-08-12T02:23:19;24.30;57.20
11387;DHT22;5748;53.102;8.456;2023-08-12T02:25:46;24.30;57.20
11387;DHT22;5748;53.102;8.456;2023-08-12T02:28:13;24.20;57.50
11387;DHT22;5748;53.102;8.456;2023-08-12T02:30:43;24.30;57.60
11387;DHT22;5748;53.102;8.456;2023-08-12T02:33:10;24.40;58.00
11387;DHT22;5748;53.102;8.456;2023-08-12T02:35:37;24.30;58.30
11387;DHT22;5748;53.102;8.456;2023-08-12T02:38:04;24.30;57.80
11387;DHT22;5748;53.102;8.456;2023-08-12T02:40:31;24.30;57.70
11387;DHT22;5748;53.102;8.456;2023-08-12T02:42:58;24.40;57.80
11387;DHT22;5748;53.102;8.456;2023-08-12T02:45:25;24.30;57.80
11387;DHT22;5748;53.102;8.456;2023-08-12T02:50:20;24.30;57.50
11387;DHT22;5748;53.102;8.456;2023-08-12T02:52:47;24.30;57.50
11387;DHT22;5748;53.102;8.456;2023-08-12T02:55:14;24.30;58.00
11387;DHT22;5748;53.102;8.456;2023-08-12T02:57:41;24.30;57.70
11387;DHT22;5748;53.102;8.456;2023-08-12T03:00:09;24.30;58.10
11387;DHT22;5748;53.102;8.456;2023-08-12T03:02:37;24.30;58.30
11387;DHT22;5748;53.102;8.456;2023-08-12T03:05:07;24.30;58.20
11387;DHT22;5748;53.102;8.456;2023-08-12T03:07:34;24.30;59.10
11387;DHT22;5748;53.102;8.456;2023-08-12T03:10:01;24.30;58.00
11387;DHT22;5748;53.102;8.456;2023-08-12T03:12:28;24.30;58.00
11387;DHT22;5748;53.102;8.456;2023-08-12T03:14:54;24.30;58.00
11387;DHT22;5748;53.102;8.456;2023-08-12T03:17:21;24.20;58.00
11387;DHT22;5748;53.102;8.456;2023-08-12T03:24:45;24.30;58.50
11387;DHT22;5748;53.102;8.456;2023-08-12T03:27:12;24.30;58.30
11387;DHT22;5748;53.102;8.456;2023-08-12T03:29:39;22.70;56.90
11387;DHT22;5748;53.102;8.456;2023-08-12T03:32:06;24.30;58.40
11387;DHT22;5748;53.102;8.456;2023-08-12T03:34:32;24.30;59.50
11387;DHT22;5748;53.102;8.456;2023-08-12T03:36:59;24.30;58.50
11387;DHT22;5748;53.102;8.456;2023-08-12T03:41:55;24.30;58.90
11387;DHT22;5748;53.102;8.456;2023-08-12T03:46:49;24.30;58.60
11387;DHT22;5748;53.102;8.456;2023-08-12T03:49:16;24.20;59.00
11387;DHT22;5748;53.102;8.456;2023-08-12T03:51:43;24.20;59.10
11387;DHT22;5748;53.102;8.456;2023-08-12T03:54:10;24.20;59.20
11387;DHT22;5748;53.102;8.456;2023-08-12T03:59:06;24.20;59.10
11387;DHT22;5748;53.102;8.456;2023-08-12T04:01:32;24.20;59.40
11387;DHT22;5748;53.102;8.456;2023-08-12T04:03:59;24.20;59.10
11387;DHT22;5748;53.102;8.456;2023-08-12T04:06:26;24.20;59.10
11387;DHT22;5748;53.102;8.456;2023-08-12T04:11:20;24.20;59.30
11387;DHT22;5748;53.102;8.456;2023-08-12T04:16:16;24.20;59.30
11387;DHT22;5748;53.102;8.456;2023-08-12T04:18:43;25.20;61.30
11387;DHT22;5748;53.102;8.456;2023-08-12T04:21:10;24.10;59.40
11387;DHT22;5748;53.102;8.456;2023-08-12T04:23:38;24.20;59.90
11387;DHT22;5748;53.102;8.456;2023-08-12T04:26:04;24.10;59.60
11387;DHT22;5748;53.102;8.456;2023-08-12T04:28:31;24.10;59.60
11387;DHT22;5748;53.102;8.456;2023-08-12T04:33:28;24.10;59.60
11387;DHT22;5748;53.102;8.456;2023-08-12T04:35:55;24.10;59.80
11387;DHT22;5748;53.102;8.456;2023-08-12T04:38:22;24.10;59.80
11387;DHT22;5748;53.102;8.456;2023-08-12T04:40:49;24.10;60.50
11387;DHT22;5748;53.102;8.456;2023-08-12T04:43:16;24.00;59.90
11387;DHT22;5748;53.102;8.456;2023-08-12T04:50:41;24.00;60.00
11387;DHT22;5748;53.102;8.456;2023-08-12T04:53:08;24.00;60.30
11387;DHT22;5748;53.102;8.456;2023-08-12T04:55:35;24.00;60.20
11387;DHT22;5748;53.102;8.456;2023-08-12T04:58:04;24.00;60.30
11387;DHT22;5748;53.102;8.456;2023-08-12T05:00:31;24.00;60.80
11387;DHT22;5748;53.102;8.456;2023-08-12T05:02:58;24.00;60.70
11387;DHT22;5748;53.102;8.456;2023-08-12T05:07:54;24.00;60.80
11387;DHT22;5748;53.102;8.456;2023-08-12T05:10:21;24.00;60.60
11387;DHT22;5748;53.102;8.456;2023-08-12T05:12:48;24.00;60.70
11387;DHT22;5748;53.102;8.456;2023-08-12T05:15:15;24.00;60.70
11387;DHT22;5748;53.102;8.456;2023-08-12T05:17:42;24.00;60.70
11387;DHT22;5748;53.102;8.456;2023-08-12T05:20:09;23.90;61.20
11387;DHT22;5748;53.102;8.456;2023-08-12T05:22:37;24.00;61.50
11387;DHT22;5748;53.102;8.456;2023-08-12T05:25:05;25.00;62.60
11387;DHT22;5748;53.102;8.456;2023-08-12T05:27:32;24.00;61.60
11387;DHT22;5748;53.102;8.456;2023-08-12T05:29:59;24.00;61.60
11387;DHT22;5748;53.102;8.456;2023-08-12T05:32:26;24.00;61.30
11387;DHT22;5748;53.102;8.456;2023-08-12T05:34:53;24.00;61.40
11387;DHT22;5748;53.102;8.456;2023-08-12T05:37:20;24.00;61.50
11387;DHT22;5748;53.102;8.456;2023-08-12T05:39:48;24.00;62.30
11387;DHT22;5748;53.102;8.456;2023-08-12T05:42:15;24.00;62.20
11387;DHT22;5748;53.102;8.456;2023-08-12T05:47:09;24.00;62.00
11387;DHT22;5748;53.102;8.456;2023-08-12T05:52:04;24.10;62.30
11387;DHT22;5748;53.102;8.456;2023-08-12T05:54:31;24.20;62.90
11387;DHT22;5748;53.102;8.456;2023-08-12T05:59:26;24.20;62.50
11387;DHT22;5748;53.102;8.456;2023-08-12T06:01:54;24.30;63.00
11387;DHT22;5748;53.102;8.456;2023-08-12T06:04:20;24.30;63.10
11387;DHT22;5748;53.102;8.456;2023-08-12T06:06:47;24.40;63.30
11387;DHT22;5748;53.102;8.456;2023-08-12T06:09:14;24.40;63.30
11387;DHT22;5748;53.102;8.456;2023-08-12T06:11:41;24.40;63.30
11387;DHT22;5748;53.102;8.456;2023-08-12T06:14:10;24.50;63.30
11387;DHT22;5748;53.102;8.456;2023-08-12T06:16:36;24.40;63.40
11387;DHT22;5748;53.102;8.456;2023-08-12T06:19:04;24.70;63.70
11387;DHT22;5748;53.102;8.456;2023-08-12T06:21:31;24.70;63.80
11387;DHT22;5748;53.102;8.456;2023-08-12T06:23:58;24.80;63.90
11387;DHT22;5748;53.102;8.456;2023-08-12T06:26:24;24.90;63.60
11387;DHT22;5748;53.102;8.456;2023-08-12T06:28:51;24.90;63.40
11387;DHT22;5748;53.102;8.456;2023-08-12T06:33:47;25.00;63.40
11387;DHT22;5748;53.102;8.456;2023-08-12T06:36:14;25.00;63.20
11387;DHT22;5748;53.102;8.456;2023-08-12T06:38:41;25.10;64.00
11387;DHT22;5748;53.102;8.456;2023-08-12T06:41:08;25.10;63.80
11387;DHT22;5748;53.102;8.456;2023-08-12T06:43:34;25.20;63.50
11387;DHT22;5748;53.102;8.456;2023-08-12T06:46:01;25.20;64.10
11387;DHT22;5748;53.102;8.456;2023-08-12T06:48:30;25.30;64.30
11387;DHT22;5748;53.102;8.456;2023-08-12T06:50:57;25.50;64.40
11387;DHT22;5748;53.102;8.456;2023-08-12T06:53:25;25.40;64.30
11387;DHT22;5748;53.102;8.456;2023-08-12T06:55:52;25.50;64.50
11387;DHT22;5748;53.102;8.456;2023-08-12T06:58:20;25.60;64.60
11387;DHT22;5748;53.102;8.456;2023-08-12T07:00:47;25.60;64.40
11387;DHT22;5748;53.102;8.456;2023-08-12T07:03:14;25.60;64.30
11387;DHT22;5748;53.102;8.456;2023-08-12T07:05:42;25.60;63.60
11387;DHT22;5748;53.102;8.456;2023-08-12T07:08:09;25.70;63.60
11387;DHT22;5748;53.102;8.456;2023-08-12T07:10:38;25.70;63.90
11387;DHT22;5748;53.102;8.456;2023-08-12T07:13:05;26.00;64.40
11387;DHT22;5748;53.102;8.456;2023-08-12T07:15:32;25.80;64.20
11387;DHT22;5748;53.102;8.456;2023-08-12T07:17:59;25.80;64.30
11387;DHT22;5748;53.102;8.456;2023-08-12T07:20:26;25.80;64.70
11387;DHT22;5748;53.102;8.456;2023-08-12T07:22:54;25.90;64.70
11387;DHT22;5748;53.102;8.456;2023-08-12T07:25:22;25.90;64.20
11387;DHT22;5748;53.102;8.456;2023-08-12T07:27:49;25.90;63.90
11387;DHT22;5748;53.102;8.456;2023-08-12T07:30:15;25.90;64.00
11387;DHT22;5748;53.102;8.456;2023-08-12T07:32:42;25.90;64.40
11387;DHT22;5748;53.102;8.456;2023-08-12T07:35:09;26.00;64.60
11387;DHT22;5748;53.102;8.456;2023-08-12T07:37:37;26.20;65.00
11387;DHT22;5748;53.102;8.456;2023-08-12T07:40:06;26.10;64.80
11387;DHT22;5748;53.102;8.456;2023-08-12T07:42:34;26.10;64.90
11387;DHT22;5748;53.102;8.456;2023-08-12T07:45:01;26.20;64.70
11387;DHT22;5748;53.102;8.456;2023-08-12T07:47:28;26.20;64.20
11387;DHT22;5748;53.102;8.456;2023-08-12T07:49:55;26.30;64.70
11387;DHT22;5748;53.102;8.456;2023-08-12T07:52:22;26.30;64.60
11387;DHT22;5748;53.102;8.456;2023-08-12T07:54:49;26.40;64.80
11387;DHT22;5748;53.102;8.456;2023-08-12T07:57:17;26.40;64.30
11387;DHT22;5748;53.102;8.456;2023-08-12T07:59:46;26.50;64.80
11387;DHT22;5748;53.102;8.456;2023-08-12T08:02:12;26.60;64.50
11387;DHT22;5748;53.102;8.456;2023-08-12T08:04:39;26.60;64.30
11387;DHT22;5748;53.102;8.456;2023-08-12T08:07:06;26.60;64.00
11387;DHT22;5748;53.102;8.456;2023-08-12T08:09:34;26.50;63.30
11387;DHT22;5748;53.102;8.456;2023-08-12T08:12:01;26.50;63.70
11387;DHT22;5748;53.102;8.456;2023-08-12T08:14:31;26.50;63.60
11387;DHT22;5748;53.102;8.456;2023-08-12T08:16:58;26.50;63.70
11387;DHT22;5748;53.102;8.456;2023-08-12T08:19:24;26.30;63.60
11387;DHT22;5748;53.102;8.456;2023-08-12T08:21:52;26.50;63.80
11387;DHT22;5748;53.102;8.456;2023-08-12T08:24:18;26.50;64.00
11387;DHT22;5748;53.102;8.456;2023-08-12T08:26:45;26.40;63.60
11387;DHT22;5748;53.102;8.456;2023-08-12T08:29:12;26.40;64.00
11387;DHT22;5748;53.102;8.456;2023-08-12T08:31:41;26.40;64.10
11387;DHT22;5748;53.102;8.456;2023-08-12T08:34:08;26.30;64.20
11387;DHT22;5748;53.102;8.456;2023-08-12T08:36:35;26.30;63.70
11387;DHT22;5748;53.102;8.456;2023-08-12T08:39:02;26.30;64.10
11387;DHT22;5748;53.102;8.456;2023-08-12T08:41:31;26.20;64.10
11387;DHT22;5748;53.102;8.456;2023-08-12T08:44:02;26.80;64.70
11387;DHT22;5748;53.102;8.456;2023-08-12T08:46:29;26.20;64.60
11387;DHT22;5748;53.102;8.456;2023-08-12T08:48:59;26.20;64.70
11387;DHT22;5748;53.102;8.456;2023-08-12T08:51:27;26.20;64.90
11387;DHT22;5748;53.102;8.456;2023-08-12T08:53:57;26.30;65.10
11387;DHT22;5748;53.102;8.456;2023-08-12T08:56:25;26.30;65.10
11387;DHT22;5748;53.102;8.456;2023-08-12T08:58:52;26.30;65.10
11387;DHT22;5748;53.102;8.456;2023-08-12T09:01:20;26.30;65.00
11387;DHT22;5748;53.102;8.456;2023-08-12T09:03:48;26.30;65.00
11387;DHT22;5748;53.102;8.456;2023-08-12T09:06:21;26.40;64.70
11387;DHT22;5748;53.102;8.456;2023-08-12T09:08:51;26.40;65.20
11387;DHT22;5748;53.102;8.456;2023-08-12T09:11:19;26.40;65.00
11387;DHT22;5748;53.102;8.456;2023-08-12T09:13:47;26.40;64.80
11387;DHT22;5748;53.102;8.456;2023-08-12T09:16:14;26.40;64.80
11387;DHT22;5748;53.102;8.456;2023-08-12T09:18:43;26.50;64.80
11387;DHT22;5748;53.102;8.456;2023-08-12T09:21:10;26.40;64.80
11387;DHT22;5748;53.102;8.456;2023-08-12T09:23:40;26.30;64.20
11387;DHT22;5748;53.102;8.456;2023-08-12T09:26:13;26.10;64.80
11387;DHT22;5748;53.102;8.456;2023-08-12T09:28:41;26.20;65.10
11387;DHT22;5748;53.102;8.456;2023-08-12T09:31:08;26.20;64.40
11387;DHT22;5748;53.102;8.456;2023-08-12T09:33:48;26.20;64.90
11387;DHT22;5748;53.102;8.456;2023-08-12T09:36:15;26.20;64.90
11387;DHT22;5748;53.102;8.456;2023-08-12T09:38:44;26.10;65.10
11387;DHT22;5748;53.102;8.456;2023-08-12T09:41:11;26.10;65.10
11387;DHT22;5748;53.102;8.456;2023-08-12T09:43:40;26.00;64.80
11387;DHT22;5748;53.102;8.456;2023-08-12T09:46:10;26.00;65.30
11387;DHT22;5748;53.102;8.456;2023-08-12T09:48:39;26.00;65.40
11387;DHT22;5748;53.102;8.456;2023-08-12T09:51:07;25.90;65.30
11387;DHT22;5748;53.102;8.456;2023-08-12T09:53:34;25.80;64.80
11387;DHT22;5748;53.102;8.456;2023-08-12T09:56:06;25.80;65.40
11387;DHT22;5748;53.102;8.456;2023-08-12T09:58:35;25.80;65.80
11387;DHT22;5748;53.102;8.456;2023-08-12T10:01:03;25.80;65.80
11387;DHT22;5748;53.102;8.456;2023-08-12T10:03:33;25.60;65.10
11387;DHT22;5748;53.102;8.456;2023-08-12T10:06:00;25.60;66.50
11387;DHT22;5748;53.102;8.456;2023-08-12T10:08:29;26.10;66.10
11387;DHT22;5748;53.102;8.456;2023-08-12T10:10:56;25.60;65.90
11387;DHT22;5748;53.102;8.456;2023-08-12T10:13:24;25.60;65.90
11387;DHT22;5748;53.102;8.456;2023-08-12T10:15:52;25.50;65.60
11387;DHT22;5748;53.102;8.456;2023-08-12T10:18:20;26.40;66.90
11387;DHT22;5748;53.102;8.456;2023-08-12T10:20:49;25.50;66.10
11387;DHT22;5748;53.102;8.456;2023-08-12T10:23:17;25.50;66.20
11387;DHT22;5748;53.102;8.456;2023-08-12T10:25:44;25.50;66.20
11387;DHT22;5748;53.102;8.456;2023-08-12T10:28:12;25.40;65.70
11387;DHT22;5748;53.102;8.456;2023-08-12T10:30:41;25.40;66.20
11387;DHT22;5748;53.102;8.456;2023-08-12T10:33:08;25.40;66.40
11387;DHT22;5748;53.102;8.456;2023-08-12T10:35:43;25.40;66.10
11387;DHT22;5748;53.102;8.456;2023-08-12T10:38:13;25.40;67.40
11387;DHT22;5748;53.102;8.456;2023-08-12T10:40:41;25.40;66.80
11387;DHT22;5748;53.102;8.456;2023-08-12T10:43:08;25.40;66.30
11387;DHT22;5748;53.102;8.456;2023-08-12T10:45:44;25.30;67.30
11387;DHT22;5748;53.102;8.456;2023-08-12T10:48:18;25.40;67.70
11387;DHT22;5748;53.102;8.456;2023-08-12T10:50:52;25.30;67.30
11387;DHT22;5748;53.102;8.456;2023-08-12T10:53:25;25.40;67.30
11387;DHT22;5748;53.102;8.456;2023-08-12T10:55:56;25.40;67.10
11387;DHT22;5748;53.102;8.456;2023-08-12T10:58:28;25.40;66.60
11387;DHT22;5748;53.102;8.456;2023-08-12T11:00:57;25.40;66.40
11387;DHT22;5748;53.102;8.456;2023-08-12T11:03:24;25.40;67.00
11387;DHT22;5748;53.102;8.456;2023-08-12T11:05:53;25.40;67.00
11387;DHT22;5748;53.102;8.456;2023-08-12T11:08:25;25.40;66.90
11387;DHT22;5748;53.102;8.456;2023-08-12T11:10:55;25.30;67.10
11387;DHT22;5748;53.102;8.456;2023-08-12T11:13:26;25.30;67.00
11387;DHT22;5748;53.102;8.456;2023-08-12T11:16:07;25.20;66.90
11387;DHT22;5748;53.102;8.456;2023-08-12T11:18:34;25.30;67.10
11387;DHT22;5748;53.102;8.456;2023-08-12T11:21:01;25.30;66.90
11387;DHT22;5748;53.102;8.456;2023-08-12T11:23:29;25.30;66.60
11387;DHT22;5748;53.102;8.456;2023-08-12T11:25:58;25.30;67.30
11387;DHT22;5748;53.102;8.456;2023-08-12T11:28:25;25.30;67.10
11387;DHT22;5748;53.102;8.456;2023-08-12T11:30:52;25.40;67.70
11387;DHT22;5748;53.102;8.456;2023-08-12T11:33:20;25.40;67.80
11387;DHT22;5748;53.102;8.456;2023-08-12T11:35:47;25.50;68.20
11387;DHT22;5748;53.102;8.456;2023-08-12T11:38:15;25.60;68.40
11387;DHT22;5748;53.102;8.456;2023-08-12T11:40:42;25.50;68.50
11387;DHT22;5748;53.102;8.456;2023-08-12T11:43:09;25.60;68.70
11387;DHT22;5748;53.102;8.456;2023-08-12T11:45:41;25.70;68.30
11387;DHT22;5748;53.102;8.456;2023-08-12T11:48:08;25.80;68.50
11387;DHT22;5748;53.102;8.456;2023-08-12T11:50:37;26.00;68.00
11387;DHT22;5748;53.102;8.456;2023-08-12T11:53:05;26.00;68.10
11387;DHT22;5748;53.102;8.456;2023-08-12T11:55:32;26.00;68.70
11387;DHT22;5748;53.102;8.456;2023-08-12T11:57:59;26.00;68.30
11387;DHT22;5748;53.102;8.456;2023-08-12T12:00:27;26.10;67.90
11387;DHT22;5748;53.102;8.456;2023-08-12T12:02:55;26.10;68.30
11387;DHT22;5748;53.102;8.456;2023-08-12T12:05:23;26.20;68.80
11387;DHT22;5748;53.102;8.456;2023-08-12T12:07:55;26.80;69.40
11387;DHT22;5748;53.102;8.456;2023-08-12T12:10:27;26.30;68.60
11387;DHT22;5748;53.102;8.456;2023-08-12T12:12:55;26.40;68.90
11387;DHT22;5748;53.102;8.456;2023-08-12T12:15:23;26.60;68.80
11387;DHT22;5748;53.102;8.456;2023-08-12T12:17:50;26.50;68.60
11387;DHT22;5748;53.102;8.456;2023-08-12T12:20:17;26.60;68.60
11387;DHT22;5748;53.102;8.456;2023-08-12T12:22:46;26.70;68.60
11387;DHT22;5748;53.102;8.456;2023-08-12T12:25:17;26.80;68.60
11387;DHT22;5748;53.102;8.456;2023-08-12T12:27:46;26.70;68.60
11387;DHT22;5748;53.102;8.456;2023-08-12T12:30:15;26.70;68.10
11387;DHT22;5748;53.102;8.456;2023-08-12T12:32:42;26.80;68.40
11387;DHT22;5748;53.102;8.456;2023-08-12T12:35:10;26.90;69.50
11387;DHT22;5748;53.102;8.456;2023-08-12T12:37:37;27.50;70.50
11387;DHT22;5748;53.102;8.456;2023-08-12T12:40:05;27.20;70.30
11387;DHT22;5748;53.102;8.456;2023-08-12T12:42:34;27.40;69.90
11387;DHT22;5748;53.102;8.456;2023-08-12T12:45:01;27.50;69.30
11387;DHT22;5748;53.102;8.456;2023-08-12T12:47:28;27.50;68.60
11387;DHT22;5748;53.102;8.456;2023-08-12T12:49:55;27.60;68.10
11387;DHT22;5748;53.102;8.456;2023-08-12T12:52:22;27.60;67.40
11387;DHT22;5748;53.102;8.456;2023-08-12T12:54:49;27.50;67.10
11387;DHT22;5748;53.102;8.456;2023-08-12T12:57:16;27.50;67.80
11387;DHT22;5748;53.102;8.456;2023-08-12T12:59:44;27.50;67.20
11387;DHT22;5748;53.102;8.456;2023-08-12T13:02:11;27.40;67.20
11387;DHT22;5748;53.102;8.456;2023-08-12T13:04:38;27.30;66.90
11387;DHT22;5748;53.102;8.456;2023-08-12T13:07:05;27.20;67.40
11387;DHT22;5748;53.102;8.456;2023-08-12T13:09:32;27.10;67.50
11387;DHT22;5748;53.102;8.456;2023-08-12T13:11:59;27.10;67.60
11387;DHT22;5748;53.102;8.456;2023-08-12T13:14:26;27.10;67.80
11387;DHT22;5748;53.102;8.456;2023-08-12T13:16:57;27.20;68.10
11387;DHT22;5748;53.102;8.456;2023-08-12T13:19:23;27.00;68.10
11387;DHT22;5748;53.102;8.456;2023-08-12T13:21:51;27.00;67.50
11387;DHT22;5748;53.102;8.456;2023-08-12T13:24:17;26.90;67.30
11387;DHT22;5748;53.102;8.456;2023-08-12T13:29:13;26.90;67.40
11387;DHT22;5748;53.102;8.456;2023-08-12T13:31:39;26.80;67.40
11387;DHT22;5748;53.102;8.456;2023-08-12T13:34:08;26.80;67.50
11387;DHT22;5748;53.102;8.456;2023-08-12T13:36:35;26.70;67.40
11387;DHT22;5748;53.102;8.456;2023-08-12T13:39:02;26.70;67.40
11387;DHT22;5748;53.102;8.456;2023-08-12T13:41:29;26.60;68.00
11387;DHT22;5748;53.102;8.456;2023-08-12T13:43:56;26.60;68.10
11387;DHT22;5748;53.102;8.456;2023-08-12T13:46:23;26.60;68.30
11387;DHT22;5748;53.102;8.456;2023-08-12T13:48:49;27.00;68.70
11387;DHT22;5748;53.102;8.456;2023-08-12T13:56:12;26.20;67.60
11387;DHT22;5748;53.102;8.456;2023-08-12T13:58:40;26.20;67.60
11387;DHT22;5748;53.102;8.456;2023-08-12T14:01:07;26.10;67.50
11387;DHT22;5748;53.102;8.456;2023-08-12T14:03:34;26.00;67.60
11387;DHT22;5748;53.102;8.456;2023-08-12T14:06:01;26.00;68.20
11387;DHT22;5748;53.102;8.456;2023-08-12T14:08:29;26.00;68.60
11387;DHT22;5748;53.102;8.456;2023-08-12T14:10:56;25.90;68.80
11387;DHT22;5748;53.102;8.456;2023-08-12T14:13:23;26.00;69.00
11387;DHT22;5748;53.102;8.456;2023-08-12T14:15:50;26.00;69.30
11387;DHT22;5748;53.102;8.456;2023-08-12T14:18:17;26.00;69.60
11387;DHT22;5748;53.102;8.456;2023-08-12T14:20:44;26.30;70.00
11387;DHT22;5748;53.102;8.456;2023-08-12T14:23:11;26.20;69.60
11387;DHT22;5748;53.102;8.456;2023-08-12T14:25:40;26.40;69.50
11387;DHT22;5748;53.102;8.456;2023-08-12T14:28:06;26.30;68.50
11387;DHT22;5748;53.102;8.456;2023-08-12T14:30:33;26.40;68.90
11387;DHT22;5748;53.102;8.456;2023-08-12T14:33:00;26.80;69.10
11387;DHT22;5748;53.102;8.456;2023-08-12T14:35:27;26.60;68.50
11387;DHT22;5748;53.102;8.456;2023-08-12T14:37:55;26.40;68.10
11387;DHT22;5748;53.102;8.456;2023-08-12T14:40:22;26.50;68.40
11387;DHT22;5748;53.102;8.456;2023-08-12T14:47:45;26.40;67.90
11387;DHT22;5748;53.102;8.456;2023-08-12T14:50:12;26.40;67.60
11387;DHT22;5748;53.102;8.456;2023-08-12T14:52:39;26.40;67.80
11387;DHT22;5748;53.102;8.456;2023-08-12T14:55:07;26.50;68.00
11387;DHT22;5748;53.102;8.456;2023-08-12T14:57:35;26.60;68.90
11387;DHT22;5748;53.102;8.456;2023-08-12T15:00:04;26.70;69.70
11387;DHT22;5748;53.102;8.456;2023-08-12T15:02:35;26.90;70.90
11387;DHT22;5748;53.102;8.456;2023-08-12T15:05:03;27.20;71.70
11387;DHT22;5748;53.102;8.456;2023-08-12T15:07:31;27.60;72.20
11387;DHT22;5748;53.102;8.456;2023-08-12T15:09:58;28.10;72.30
11387;DHT22;5748;53.102;8.456;2023-08-12T15:12:25;26.70;69.50
11387;DHT22;5748;53.102;8.456;2023-08-12T15:14:52;28.80;69.80
11387;DHT22;5748;53.102;8.456;2023-08-12T15:17:21;28.90;68.70
11387;DHT22;5748;53.102;8.456;2023-08-12T15:19:48;29.10;67.60
11387;DHT22;5748;53.102;8.456;2023-08-12T15:22:15;29.10;67.20
11387;DHT22;5748;53.102;8.456;2023-08-12T15:24:43;29.10;66.70
11387;DHT22;5748;53.102;8.456;2023-08-12T15:27:10;29.10;66.30
11387;DHT22;5748;53.102;8.456;2023-08-12T15:29:37;29.00;65.90
11387;DHT22;5748;53.102;8.456;2023-08-12T15:32:04;28.90;65.70
11387;DHT22;5748;53.102;8.456;2023-08-12T15:37:00;28.80;65.10
11387;DHT22;5748;53.102;8.456;2023-08-12T15:39:29;27.40;64.00
11387;DHT22;5748;53.102;8.456;2023-08-12T15:41:56;28.60;64.80
11387;DHT22;5748;53.102;8.456;2023-08-12T15:44:23;28.60;64.80
11387;DHT22;5748;53.102;8.456;2023-08-12T15:46:50;28.50;64.60
11387;DHT22;5748;53.102;8.456;2023-08-12T15:49:17;28.60;65.50
11387;DHT22;5748;53.102;8.456;2023-08-12T15:54:13;28.30;65.00
11387;DHT22;5748;53.102;8.456;2023-08-12T15:56:40;28.20;65.20
11387;DHT22;5748;53.102;8.456;2023-08-12T15:59:07;28.20;65.70
11387;DHT22;5748;53.102;8.456;2023-08-12T16:01:34;28.10;65.50
11387;DHT22;5748;53.102;8.456;2023-08-12T16:04:02;28.10;65.50
11387;DHT22;5748;53.102;8.456;2023-08-12T16:06:30;28.00;64.90
11387;DHT22;5748;53.102;8.456;2023-08-12T16:08:58;28.00;65.60
11387;DHT22;5748;53.102;8.456;2023-08-12T16:11:26;27.40;64.60
11387;DHT22;5748;53.102;8.456;2023-08-12T16:13:53;27.80;65.60
11387;DHT22;5748;53.102;8.456;2023-08-12T16:16:20;27.90;66.30
11387;DHT22;5748;53.102;8.456;2023-08-12T16:18:46;27.70;65.40
11387;DHT22;5748;53.102;8.456;2023-08-12T16:21:14;27.70;65.50
11387;DHT22;5748;53.102;8.456;2023-08-12T16:23:41;27.60;64.70
11387;DHT22;5748;53.102;8.456;2023-08-12T16:26:09;27.60;65.20
11387;DHT22;5748;53.102;8.456;2023-08-12T16:28:36;27.50;64.60
11387;DHT22;5748;53.102;8.456;2023-08-12T16:31:03;27.40;64.60
11387;DHT22;5748;53.102;8.456;2023-08-12T16:33:30;27.20;64.80
11387;DHT22;5748;53.102;8.456;2023-08-12T16:35:57;27.20;65.30
11387;DHT22;5748;53.102;8.456;2023-08-12T16:38:24;27.10;65.40
11387;DHT22;5748;53.102;8.456;2023-08-12T16:40:51;27.10;65.30
11387;DHT22;5748;53.102;8.456;2023-08-12T16:43:19;27.00;64.60
11387;DHT22;5748;53.102;8.456;2023-08-12T16:45:46;27.10;64.30
11387;DHT22;5748;53.102;8.456;2023-08-12T16:48:13;26.80;64.10
11387;DHT22;5748;53.102;8.456;2023-08-12T16:50:40;26.70;64.20
11387;DHT22;5748;53.102;8.456;2023-08-12T16:53:07;26.60;63.70
11387;DHT22;5748;53.102;8.456;2023-08-12T16:55:34;26.50;64.30
11387;DHT22;5748;53.102;8.456;2023-08-12T16:58:01;26.50;64.30
11387;DHT22;5748;53.102;8.456;2023-08-12T17:02:58;26.30;63.40